Skip Navigation Links Skip Navigation Links

Current Weather

Airport Zuid Limberg, Maastricht, Netherlands

For information only: do not use for flight planning or navigation.
Latest weather
Observation time Tuesday, October 19, 2021 10:25 AM CEST
Local time Tuesday, October 19, 2021 10:32 AM CEST
Flight conditions Low Instrument Meteorological Conditions
Winds
Wind direction South-Southwest (200°)
Winds variable from 170° to 240°
Wind speed 15 mph
Visibility 1.3 mi.
Present weather drizzle
Sky condition
Ceiling 200 ft. broken clouds
Cloud layer broken clouds 200 ft.
Cloud layer broken clouds 300 ft.
Cloud layer overcast 400 ft.
Cloud layer broken clouds 600 ft.
Temperature 59°F
Dewpoint 57°F
Altimeter 30.06 in.Hg
Derived measurements
Relative humidity 94%
Density altitude 442 ft.
Remarks
Fully automated report.
METAR EHBK 190825Z AUTO 20013KT 170V240 2100 DZ BKN002 BKN003 OVC004 15/14 Q1018 TEMPO 5000 BKN006

Settings

Location code

InnerDrive.Weather 4.0.6770.0 Release CLR 4.0.30319.42000
Copyright ©2018 Inner Drive Technology. All rights reserved. Portions Copyright ©1986-2018 David Braverman.

Find weather

Site navigation


Skip Navigation Links

Place info

Page info

PayPal - The safer, easier way to pay online!

Return home.

Copyright ©2021 Inner Drive Technology. Purveyors of fine, hand-crafted computer software. Page printed 2021-10-19T08:32:00 UTC.